Time;durP1;ratioP1;P1;durP2;ratioP2;P2;SDS_P1;SDS_P2;PMS_P1;PMS_P2;Temp;Humidity;BMP_temperature;BMP_pressure;BME280_temperature;BME280_humidity;BME280_pressure;Samples;Min_cycle;Max_cycle;Signal;HPM_P1;HPM_P2
2023/12/07 00:00:01;;;;;;;14.32;8.10;;;23.50;52.20;;;;;;5070778;28;20075;-69
2023/12/07 00:02:27;;;;;;;14.85;8.85;;;23.50;52.20;;;;;;5070893;28;20452;-69
2023/12/07 00:04:53;;;;;;;13.63;8.48;;;23.40;52.00;;;;;;5070399;28;20484;-70
2023/12/07 00:07:19;;;;;;;12.32;8.40;;;23.40;52.00;;;;;;5070754;28;20041;-69
2023/12/07 00:09:45;;;;;;;12.30;8.45;;;23.40;51.90;;;;;;5069412;28;20041;-69
2023/12/07 00:12:11;;;;;;;11.00;7.85;;;23.40;51.90;;;;;;5070904;28;20028;-69
2023/12/07 00:14:37;;;;;;;12.18;8.20;;;23.30;51.90;;;;;;5067474;28;20107;-69
2023/12/07 00:17:03;;;;;;;13.60;7.95;;;23.30;51.90;;;;;;5050652;28;20094;-69
2023/12/07 00:19:29;;;;;;;12.23;7.70;;;23.30;51.80;;;;;;5050815;28;20160;-69
2023/12/07 00:21:55;;;;;;;12.25;7.90;;;23.20;51.70;;;;;;5050620;28;20516;-69
2023/12/07 00:24:21;;;;;;;12.15;8.35;;;23.30;51.80;;;;;;5050918;28;20113;-69
2023/12/07 00:26:48;;;;;;;12.93;8.32;;;23.30;51.80;;;;;;5054286;28;20029;-69
2023/12/07 00:29:14;;;;;;;9.80;6.75;;;23.30;51.80;;;;;;5036692;28;20035;-69
2023/12/07 00:31:40;;;;;;;11.05;8.02;;;23.00;51.70;;;;;;5054179;28;20072;-69
2023/12/07 00:34:06;;;;;;;11.60;7.65;;;23.30;51.80;;;;;;5054177;28;20453;-70
2023/12/07 00:36:32;;;;;;;10.73;7.65;;;23.30;51.80;;;;;;5036277;28;20044;-68
2023/12/07 00:38:58;;;;;;;12.38;7.22;;;23.20;51.80;;;;;;5054618;28;20036;-69
2023/12/07 00:41:24;;;;;;;9.32;7.30;;;23.30;51.80;;;;;;5054158;28;20037;-69
2023/12/07 00:43:50;;;;;;;13.00;8.63;;;23.30;51.80;;;;;;5054243;28;20059;-69
2023/12/07 00:46:17;;;;;;;13.13;7.63;;;23.30;51.80;;;;;;5053896;28;20036;-69
2023/12/07 00:48:43;;;;;;;11.10;6.53;;;23.40;51.70;;;;;;5053716;28;20478;-69
2023/12/07 00:51:10;;;;;;;12.73;7.80;;;23.30;51.60;;;;;;5054279;28;20057;-69
2023/12/07 00:53:36;;;;;;;10.48;7.75;;;23.20;51.50;;;;;;5054048;28;20033;-70
2023/12/07 00:56:04;;;;;;;10.00;7.40;;;23.30;51.50;;;;;;5053575;28;20029;-69
2023/12/07 00:58:30;;;;;;;9.43;6.25;;;23.30;51.40;;;;;;5056258;28;20032;-69
2023/12/07 01:00:56;;;;;;;12.65;8.18;;;23.20;51.40;;;;;;5053808;28;20021;-69
2023/12/07 01:03:22;;;;;;;13.70;7.97;;;23.30;51.40;;;;;;5054049;28;20041;-69
2023/12/07 01:05:48;;;;;;;9.85;6.65;;;23.30;51.40;;;;;;5055148;28;20115;-69
2023/12/07 01:08:14;;;;;;;11.50;7.45;;;23.30;51.40;;;;;;5073592;28;20036;-69
2023/12/07 01:10:40;;;;;;;11.98;7.68;;;23.30;51.40;;;;;;5073565;28;20064;-69
2023/12/07 01:13:06;;;;;;;10.85;6.93;;;23.20;51.30;;;;;;5073490;28;20396;-70
2023/12/07 01:15:32;;;;;;;10.43;7.65;;;23.30;51.30;;;;;;5073489;28;20060;-69
2023/12/07 01:17:58;;;;;;;11.27;7.35;;;23.20;51.20;;;;;;5073389;28;20032;-69
2023/12/07 01:20:24;;;;;;;8.90;6.15;;;23.20;51.30;;;;;;5073550;28;20404;-69
2023/12/07 01:22:50;;;;;;;11.25;7.82;;;23.10;51.20;;;;;;5073952;28;20040;-70
2023/12/07 01:25:21;;;;;;;13.85;7.80;;;23.10;51.30;;;;;;5073519;28;20028;-70
2023/12/07 01:27:48;;;;;;;12.10;8.02;;;23.10;51.20;;;;;;5055221;28;20028;-68
2023/12/07 01:30:14;;;;;;;10.20;6.97;;;23.10;51.30;;;;;;5073217;28;20024;-69
2023/12/07 01:32:40;;;;;;;12.40;7.50;;;23.10;51.20;;;;;;5073233;28;20036;-69
2023/12/07 01:35:07;;;;;;;14.57;7.88;;;23.30;51.40;;;;;;5073138;28;20032;-68
2023/12/07 01:37:33;;;;;;;14.05;7.55;;;23.10;51.30;;;;;;5072148;28;20032;-69
2023/12/07 01:39:59;;;;;;;12.40;7.60;;;23.30;51.40;;;;;;5037583;28;20512;-69
2023/12/07 01:42:25;;;;;;;8.98;6.82;;;23.10;51.10;;;;;;5073064;28;20400;-69
2023/12/07 01:44:51;;;;;;;11.95;8.52;;;23.30;51.20;;;;;;5037248;28;20051;-69
2023/12/07 01:47:17;;;;;;;12.18;8.23;;;23.30;51.10;;;;;;5054901;28;20374;-69
2023/12/07 01:49:43;;;;;;;12.02;7.90;;;23.20;50.90;;;;;;5073102;28;20654;-69
2023/12/07 01:52:10;;;;;;;12.10;7.32;;;23.10;50.90;;;;;;5073021;28;20052;-69
2023/12/07 01:54:38;;;;;;;11.63;7.22;;;23.20;50.90;;;;;;5071623;28;20048;-69
2023/12/07 01:57:04;;;;;;;9.95;6.90;;;23.10;50.80;;;;;;5070289;28;20396;-69
2023/12/07 01:59:30;;;;;;;10.80;7.43;;;23.20;50.70;;;;;;5054961;28;20492;-70
2023/12/07 02:01:56;;;;;;;11.88;8.48;;;23.30;50.70;;;;;;5072930;28;20032;-69
2023/12/07 02:04:22;;;;;;;12.07;7.32;;;23.20;50.60;;;;;;5072719;28;20025;-68
2023/12/07 02:06:48;;;;;;;12.05;7.57;;;23.20;50.60;;;;;;5020444;28;20714;-69
2023/12/07 02:09:15;;;;;;;13.45;7.88;;;23.00;50.60;;;;;;5072242;28;20440;-69
2023/12/07 02:11:41;;;;;;;12.00;8.40;;;23.10;50.60;;;;;;5036908;28;20059;-69
2023/12/07 02:14:07;;;;;;;10.63;7.38;;;23.10;50.60;;;;;;5072564;28;20029;-68
2023/12/07 02:16:45;;;;;;;9.73;7.60;;;22.90;50.50;;;;;;5072460;28;20094;-69
2023/12/07 02:19:41;;;;;;;11.65;8.32;;;23.00;50.50;;;;;;5072343;28;20032;-69
2023/12/07 02:22:17;;;;;;;10.27;7.47;;;23.10;50.60;;;;;;5072497;28;20106;-69
2023/12/07 02:25:01;;;;;;;11.10;7.00;;;23.10;50.70;;;;;;5072271;28;20037;-69
2023/12/07 02:27:47;;;;;;;11.90;8.00;;;23.00;50.60;;;;;;5072168;28;20036;-69
2023/12/07 02:30:14;;;;;;;10.63;8.10;;;22.90;50.60;;;;;;5072147;28;20404;-69
2023/12/07 02:32:44;;;;;;;13.38;8.68;;;23.00;50.50;;;;;;5072040;28;20025;-69
2023/12/07 02:35:15;;;;;;;10.32;7.35;;;23.00;50.50;;;;;;5036414;28;20379;-69
2023/12/07 02:37:48;;;;;;;11.73;8.15;;;23.10;50.50;;;;;;5071902;28;20398;-69
2023/12/07 02:40:21;;;;;;;13.35;8.32;;;23.10;50.40;;;;;;5071695;28;20066;-69
2023/12/07 02:42:48;;;;;;;12.95;8.10;;;23.00;50.30;;;;;;5071946;28;20033;-69
2023/12/07 02:45:15;;;;;;;12.07;6.45;;;23.10;50.30;;;;;;5071747;28;20043;-69
2023/12/07 02:47:43;;;;;;;8.07;5.72;;;23.20;50.20;;;;;;5052504;28;20041;-67
2023/12/07 02:50:09;;;;;;;10.55;7.18;;;23.10;50.20;;;;;;5071803;28;20043;-69
2023/12/07 02:52:36;;;;;;;11.95;8.02;;;23.10;50.10;;;;;;5071902;28;20074;-69
2023/12/07 02:55:02;;;;;;;12.25;7.93;;;23.10;50.10;;;;;;5035993;28;20067;-69
2023/12/07 02:57:29;;;;;;;13.85;7.85;;;23.10;50.10;;;;;;5053773;28;20032;-69
2023/12/07 02:59:56;;;;;;;17.00;8.10;;;23.10;50.10;;;;;;5071521;28;20028;-70
2023/12/07 03:02:22;;;;;;;13.95;8.38;;;23.10;50.10;;;;;;5053936;28;20039;-70
2023/12/07 03:04:48;;;;;;;12.05;8.02;;;23.00;50.00;;;;;;5071571;28;20024;-69
2023/12/07 03:07:14;;;;;;;12.68;8.93;;;23.00;50.00;;;;;;5068458;28;20013;-69
2023/12/07 03:09:40;;;;;;;14.02;8.20;;;23.00;50.10;;;;;;5071027;28;20464;-69
2023/12/07 03:12:07;;;;;;;12.40;7.60;;;23.00;50.10;;;;;;5071308;28;20059;-69
2023/12/07 03:14:33;;;;;;;13.43;8.20;;;23.10;50.20;;;;;;5061818;28;20444;-69
2023/12/07 03:16:59;;;;;;;12.50;7.95;;;22.90;50.20;;;;;;5051306;28;20043;-69
2023/12/07 03:19:25;;;;;;;8.50;6.38;;;22.90;50.20;;;;;;5051492;28;20329;-69
2023/12/07 03:21:51;;;;;;;11.25;7.72;;;23.00;50.20;;;;;;5051240;28;20405;-68
2023/12/07 03:24:17;;;;;;;9.02;6.90;;;23.00;50.20;;;;;;5051205;28;20025;-68
2023/12/07 03:26:43;;;;;;;14.07;9.00;;;23.00;50.20;;;;;;5050878;28;20029;-69
2023/12/07 03:29:09;;;;;;;14.40;9.02;;;22.90;50.20;;;;;;5051115;28;20041;-69
2023/12/07 03:31:35;;;;;;;13.77;8.10;;;23.00;50.20;;;;;;5033248;28;20040;-67
2023/12/07 03:34:02;;;;;;;10.38;7.50;;;23.10;50.20;;;;;;5051101;28;20128;-69
2023/12/07 03:36:28;;;;;;;10.25;7.82;;;23.00;50.00;;;;;;5050954;28;20528;-69
2023/12/07 03:38:54;;;;;;;12.48;8.15;;;23.10;50.00;;;;;;5050957;28;20041;-69
2023/12/07 03:41:20;;;;;;;15.13;8.32;;;23.00;49.90;;;;;;5051142;28;20149;-70
2023/12/07 03:43:46;;;;;;;12.32;8.00;;;23.00;49.90;;;;;;5051011;28;20186;-69
2023/12/07 03:46:12;;;;;;;9.70;7.57;;;23.20;49.80;;;;;;5050981;28;20037;-68
2023/12/07 03:48:38;;;;;;;11.82;8.50;;;23.00;49.70;;;;;;5050874;28;20029;-69
2023/12/07 03:51:04;;;;;;;12.07;7.93;;;23.00;49.70;;;;;;5050842;28;20519;-69
2023/12/07 03:53:30;;;;;;;4.95;3.90;;;23.10;49.70;;;;;;5050741;28;20534;-69
2023/12/07 03:55:56;;;;;;;3.92;2.83;;;23.00;49.70;;;;;;5050702;28;20029;-70
2023/12/07 03:58:23;;;;;;;4.90;2.85;;;23.00;49.70;;;;;;5051762;28;20400;-71
2023/12/07 04:00:49;;;;;;;2.88;2.38;;;23.00;49.80;;;;;;5073541;28;20032;-70
2023/12/07 04:03:15;;;;;;;4.43;2.92;;;23.10;49.80;;;;;;5075009;28;20436;-69
2023/12/07 04:05:41;;;;;;;2.50;2.13;;;23.00;49.60;;;;;;5075226;28;20158;-68
2023/12/07 04:08:07;;;;;;;3.92;3.00;;;23.00;49.50;;;;;;5074821;28;20043;-70
2023/12/07 04:10:33;;;;;;;16.15;9.73;;;22.90;49.30;;;;;;5022600;28;20041;-70
2023/12/07 04:12:59;;;;;;;4.68;3.63;;;22.90;49.40;;;;;;5074817;28;20028;-74
2023/12/07 04:15:25;;;;;;;5.15;3.60;;;23.30;53.40;;;;;;5074479;28;20074;-74
2023/12/07 04:17:52;;;;;;;15.55;5.05;;;23.80;52.30;;;;;;5074515;28;20040;-75
2023/12/07 04:20:18;;;;;;;7.50;5.88;;;24.40;56.10;;;;;;5056793;28;20485;-75
2023/12/07 04:22:45;;;;;;;8.85;6.15;;;24.60;52.60;;;;;;5074364;28;20036;-72
2023/12/07 04:25:11;;;;;;;9.35;5.97;;;24.30;46.90;;;;;;5056804;28;20027;-73
2023/12/07 04:27:37;;;;;;;12.75;8.80;;;24.10;45.00;;;;;;5074122;28;20152;-70
2023/12/07 04:30:04;;;;;;;13.43;9.60;;;23.90;43.50;;;;;;5074420;28;20052;-70
2023/12/07 04:32:31;;;;;;;14.57;9.65;;;23.70;43.00;;;;;;5056721;28;20032;-70
2023/12/07 04:34:57;;;;;;;15.18;8.75;;;23.70;42.60;;;;;;5074466;28;20157;-70
2023/12/07 04:37:23;;;;;;;11.57;7.80;;;23.70;42.70;;;;;;5074114;28;20123;-70
2023/12/07 04:39:49;;;;;;;12.60;8.25;;;23.50;43.10;;;;;;5056341;28;20350;-69
2023/12/07 04:42:15;;;;;;;13.63;8.68;;;23.50;43.60;;;;;;5074146;28;20140;-69
2023/12/07 04:44:41;;;;;;;12.93;8.13;;;23.50;44.10;;;;;;5074549;28;20045;-70
2023/12/07 04:47:07;;;;;;;10.68;7.22;;;23.50;44.50;;;;;;5074158;28;20028;-70
2023/12/07 04:49:33;;;;;;;11.30;7.80;;;23.40;44.70;;;;;;5074139;28;20036;-72
2023/12/07 04:51:59;;;;;;;11.82;7.05;;;23.40;45.00;;;;;;5074175;28;20024;-75
2023/12/07 04:54:27;;;;;;;7.15;4.40;;;23.30;45.50;;;;;;5073891;28;20051;-71
2023/12/07 04:56:54;;;;;;;5.10;3.30;;;23.40;45.70;;;;;;5073876;28;20037;-71
2023/12/07 04:59:20;;;;;;;4.72;3.17;;;23.20;46.00;;;;;;5074117;28;20028;-71
2023/12/07 05:01:47;;;;;;;10.88;7.78;;;23.30;46.60;;;;;;5073923;28;20048;-72
2023/12/07 05:04:13;;;;;;;12.63;8.50;;;23.20;46.70;;;;;;5073753;28;20388;-71
2023/12/07 05:06:40;;;;;;;5.32;4.50;;;23.20;47.20;;;;;;5070426;28;20025;-72
2023/12/07 05:09:09;;;;;;;5.03;4.53;;;23.20;45.50;;;;;;5073535;28;20044;-71
2023/12/07 05:11:36;;;;;;;6.00;5.40;;;23.20;43.00;;;;;;5073863;28;20068;-70
2023/12/07 05:14:03;;;;;;;5.10;4.43;;;23.40;41.40;;;;;;5057636;28;20113;-71
2023/12/07 05:16:29;;;;;;;9.18;5.63;;;23.40;42.40;;;;;;5053625;28;20111;-71
2023/12/07 05:18:55;;;;;;;7.40;6.00;;;23.40;41.80;;;;;;5053764;28;20058;-73
2023/12/07 05:21:23;;;;;;;6.85;6.18;;;23.40;44.60;;;;;;5053527;28;20131;-70
2023/12/07 05:23:49;;;;;;;8.40;7.60;;;23.40;37.80;;;;;;5053638;28;20561;-69
2023/12/07 05:26:15;;;;;;;10.50;9.27;;;23.30;37.10;;;;;;5053269;28;20067;-71
2023/12/07 05:28:41;;;;;;;12.48;11.18;;;23.10;36.70;;;;;;5053384;28;20150;-73
2023/12/07 05:31:06;;;;;;;17.13;15.30;;;23.10;35.60;;;;;;5053159;28;20036;-71
2023/12/07 05:33:33;;;;;;;10.20;9.20;;;23.10;35.40;;;;;;5053396;28;20091;-70
2023/12/07 05:36:00;;;;;;;10.02;6.32;;;23.10;35.60;;;;;;5053203;28;20444;-71
2023/12/07 05:38:26;;;;;;;11.68;7.05;;;23.00;40.60;;;;;;5053239;28;20753;-71
2023/12/07 05:40:52;;;;;;;7.22;6.50;;;23.00;37.10;;;;;;5035562;28;20040;-69
2023/12/07 05:43:18;;;;;;;8.73;6.03;;;23.10;38.90;;;;;;5053277;28;20025;-71
2023/12/07 05:45:44;;;;;;;9.82;6.28;;;23.10;40.60;;;;;;5053248;28;20040;-70
2023/12/07 05:48:11;;;;;;;9.70;6.22;;;23.20;37.00;;;;;;5001231;28;20045;-73
2023/12/07 05:50:39;;;;;;;7.20;5.63;;;23.10;36.60;;;;;;5052971;28;20041;-70
2023/12/07 05:53:06;;;;;;;10.63;5.65;;;23.30;34.30;;;;;;5053017;28;20037;-70
2023/12/07 05:55:32;;;;;;;10.00;5.88;;;23.30;34.50;;;;;;5052934;28;20560;-70
2023/12/07 05:57:58;;;;;;;9.57;6.63;;;23.20;44.10;;;;;;5052809;28;20424;-69
2023/12/07 06:00:25;;;;;;;11.05;7.68;;;23.30;46.30;;;;;;5052622;28;20059;-71
2023/12/07 06:02:51;;;;;;;19.55;7.72;;;23.40;46.60;;;;;;5052689;28;20039;-69
2023/12/07 06:05:17;;;;;;;12.10;7.57;;;23.50;49.80;;;;;;5052476;28;20064;-70
2023/12/07 06:07:43;;;;;;;13.25;7.40;;;23.60;48.40;;;;;;5054720;28;20396;-73
2023/12/07 06:10:10;;;;;;;10.80;8.10;;;23.40;48.10;;;;;;5052532;28;20056;-74
2023/12/07 06:12:36;;;;;;;12.77;7.88;;;23.40;48.00;;;;;;5034434;28;20465;-74
2023/12/07 06:15:04;;;;;;;10.48;7.22;;;23.40;48.10;;;;;;5052331;28;20477;-73
2023/12/07 06:17:29;;;;;;;11.15;7.70;;;23.60;48.10;;;;;;5052210;28;20091;-73
2023/12/07 06:19:56;;;;;;;12.95;8.32;;;23.60;48.10;;;;;;5052253;28;20029;-71
2023/12/07 06:22:21;;;;;;;14.00;7.78;;;23.50;48.10;;;;;;5052078;28;20532;-72
2023/12/07 06:24:48;;;;;;;10.63;7.30;;;23.40;48.10;;;;;;5052342;28;20028;-73
2023/12/07 06:27:13;;;;;;;12.77;8.50;;;23.60;48.20;;;;;;5051955;28;20033;-71
2023/12/07 06:29:39;;;;;;;13.05;8.55;;;23.50;48.30;;;;;;5052282;28;20123;-72
2023/12/07 06:32:06;;;;;;;12.15;8.18;;;23.50;48.40;;;;;;5016704;28;20520;-72
2023/12/07 06:34:32;;;;;;;14.43;9.05;;;23.70;48.50;;;;;;5052259;28;20037;-71
2023/12/07 06:36:58;;;;;;;13.52;8.45;;;23.70;48.60;;;;;;5052118;28;20040;-69
2023/12/07 06:39:24;;;;;;;13.38;8.80;;;23.50;48.70;;;;;;5052208;28;20396;-71
2023/12/07 06:41:50;;;;;;;12.43;7.53;;;23.60;48.80;;;;;;5051959;28;20044;-70
2023/12/07 06:44:16;;;;;;;10.55;7.72;;;23.60;49.00;;;;;;5034194;28;20037;-72
2023/12/07 06:46:42;;;;;;;12.27;8.18;;;23.60;49.20;;;;;;5051938;28;20029;-69
2023/12/07 06:49:08;;;;;;;20.60;7.57;;;23.60;49.30;;;;;;5040125;28;20504;-71
2023/12/07 06:51:34;;;;;;;9.88;6.88;;;23.50;49.40;;;;;;5051897;28;20501;-72
2023/12/07 06:54:00;;;;;;;12.40;7.95;;;23.60;49.50;;;;;;5061147;28;20166;-73
2023/12/07 06:56:26;;;;;;;7.47;5.25;;;23.60;52.30;;;;;;5061720;28;20408;-69
2023/12/07 06:58:52;;;;;;;9.63;5.80;;;23.70;49.80;;;;;;5052641;28;20033;-70
2023/12/07 07:01:18;;;;;;;9.43;4.78;;;23.90;44.60;;;;;;5051641;28;20134;-68
2023/12/07 07:03:44;;;;;;;14.20;7.88;;;24.00;44.60;;;;;;5053898;28;20469;-71
2023/12/07 07:06:10;;;;;;;14.00;8.02;;;24.00;48.30;;;;;;5056354;28;20028;-71
2023/12/07 07:08:36;;;;;;;16.35;8.85;;;24.00;48.30;;;;;;5041566;28;20036;-70
2023/12/07 07:11:10;;;;;;;12.13;7.50;;;24.10;50.40;;;;;;5061384;28;20028;-68
2023/12/07 07:13:37;;;;;;;14.75;7.18;;;24.00;56.10;;;;;;5061839;28;20023;-72
2023/12/07 07:16:03;;;;;;;6.63;5.15;;;24.30;53.70;;;;;;5060604;28;20053;-72
2023/12/07 07:18:29;;;;;;;12.50;6.10;;;24.40;48.10;;;;;;5060189;28;20093;-73
2023/12/07 07:20:55;;;;;;;13.05;8.32;;;24.30;46.10;;;;;;5061452;28;20035;-71
2023/12/07 07:23:21;;;;;;;21.08;7.47;;;24.30;46.20;;;;;;5044271;28;20033;-70
2023/12/07 07:25:47;;;;;;;29.48;8.38;;;24.30;45.80;;;;;;5060345;28;20028;-70
2023/12/07 07:28:13;;;;;;;29.00;10.02;;;24.40;45.00;;;;;;5061339;28;20131;-68
2023/12/07 07:30:39;;;;;;;21.30;10.50;;;24.30;48.50;;;;;;5059753;28;20033;-71
2023/12/07 07:33:06;;;;;;;18.95;9.13;;;24.70;58.10;;;;;;5043032;28;20109;-71
2023/12/07 07:35:32;;;;;;;22.98;8.40;;;24.90;53.60;;;;;;5060659;28;20040;-70
2023/12/07 07:37:58;;;;;;;20.17;7.93;;;25.20;56.00;;;;;;5059142;28;20572;-71
2023/12/07 07:40:24;;;;;;;19.85;7.63;;;25.20;51.40;;;;;;5060741;28;20412;-70
2023/12/07 07:42:50;;;;;;;22.40;8.77;;;25.50;48.90;;;;;;5060825;28;20060;-70
2023/12/07 07:45:16;;;;;;;20.15;8.85;;;25.50;44.70;;;;;;5060015;28;20082;-68
2023/12/07 07:47:43;;;;;;;18.65;9.65;;;25.50;43.20;;;;;;5060660;28;20024;-70
2023/12/07 07:50:10;;;;;;;17.67;9.88;;;25.50;45.00;;;;;;5060814;28;20056;-70
2023/12/07 07:52:36;;;;;;;14.45;8.00;;;25.60;43.90;;;;;;5056188;28;20050;-70
2023/12/07 07:55:04;;;;;;;24.35;9.73;;;25.60;45.50;;;;;;5065679;28;20040;-69
2023/12/07 07:57:31;;;;;;;26.27;8.93;;;25.70;40.70;;;;;;5068479;28;20033;-70
2023/12/07 07:59:57;;;;;;;20.00;9.35;;;25.80;38.20;;;;;;5035022;28;20037;-69
2023/12/07 08:02:24;;;;;;;12.27;7.35;;;25.90;41.10;;;;;;5065003;28;20100;-71
2023/12/07 08:04:51;;;;;;;21.17;9.93;;;25.90;40.70;;;;;;5053377;28;20033;-70
2023/12/07 08:07:18;;;;;;;15.65;9.80;;;25.90;39.30;;;;;;5054687;28;20469;-70
2023/12/07 08:09:44;;;;;;;16.85;9.63;;;26.00;40.10;;;;;;5065856;28;20036;-68
2023/12/07 08:12:10;;;;;;;14.23;8.68;;;26.00;42.50;;;;;;5036952;28;20048;-69
2023/12/07 08:14:36;;;;;;;15.45;8.15;;;26.10;44.40;;;;;;5016995;28;20048;-68
2023/12/07 08:17:03;;;;;;;17.20;9.88;;;26.10;37.30;;;;;;5050623;28;20377;-70
2023/12/07 08:19:30;;;;;;;16.00;8.25;;;26.20;38.00;;;;;;5053325;28;20258;-70
2023/12/07 08:21:56;;;;;;;17.23;8.20;;;26.20;40.50;;;;;;4998696;28;20385;-66
2023/12/07 08:24:22;;;;;;;22.33;14.57;;;26.10;42.50;;;;;;5050752;28;20032;-68
2023/12/07 08:26:48;;;;;;;12.80;7.60;;;26.20;39.20;;;;;;5050416;28;20025;-68
2023/12/07 08:29:14;;;;;;;24.85;9.68;;;26.40;42.10;;;;;;5050142;28;20140;-69
2023/12/07 08:31:43;;;;;;;15.75;8.07;;;26.30;43.60;;;;;;5050451;28;20040;-68
2023/12/07 08:34:09;;;;;;;20.42;9.35;;;26.40;42.90;;;;;;5050207;28;20033;-67
2023/12/07 08:36:35;;;;;;;15.63;8.23;;;26.20;39.20;;;;;;5050400;28;20028;-68
2023/12/07 08:39:01;;;;;;;13.18;7.40;;;26.20;42.80;;;;;;5050280;28;20108;-70
2023/12/07 08:41:27;;;;;;;18.42;8.82;;;26.10;40.40;;;;;;5050323;28;20028;-69
2023/12/07 08:43:53;;;;;;;22.20;8.82;;;26.20;43.40;;;;;;5015813;28;20175;-72
2023/12/07 08:46:19;;;;;;;23.80;9.20;;;26.20;42.10;;;;;;5052863;28;20108;-71
2023/12/07 08:48:45;;;;;;;12.95;8.32;;;26.30;43.90;;;;;;5057701;28;20133;-67
2023/12/07 08:51:11;;;;;;;15.25;8.13;;;26.20;44.60;;;;;;5070628;28;20021;-67
2023/12/07 08:53:40;;;;;;;9.55;6.22;;;26.10;43.40;;;;;;5074020;28;20502;-68
2023/12/07 08:56:07;;;;;;;17.35;8.60;;;26.20;42.00;;;;;;5018756;28;20060;-68
2023/12/07 08:58:33;;;;;;;13.77;8.10;;;26.00;39.60;;;;;;5053775;28;20029;-69
2023/12/07 09:00:59;;;;;;;23.17;9.13;;;26.00;41.00;;;;;;5053740;28;20106;-71
2023/12/07 09:03:31;;;;;;;19.80;7.53;;;26.20;42.20;;;;;;5056289;28;20377;-73
2023/12/07 09:05:58;;;;;;;10.48;6.60;;;26.10;42.80;;;;;;5059525;28;20036;-69
2023/12/07 09:08:24;;;;;;;10.43;5.97;;;26.10;40.20;;;;;;5073363;28;20117;-69
2023/12/07 09:10:51;;;;;;;10.07;6.00;;;26.00;36.30;;;;;;5073651;28;20548;-70
2023/12/07 09:13:18;;;;;;;12.80;6.70;;;25.90;33.60;;;;;;5072173;28;20100;-69
2023/12/07 09:15:44;;;;;;;13.10;6.88;;;25.80;34.10;;;;;;5076533;28;20504;-71
2023/12/07 09:18:11;;;;;;;9.55;6.53;;;25.70;32.90;;;;;;5093935;28;20044;-72
2023/12/07 09:20:45;;;;;;;9.40;5.45;;;25.90;38.40;;;;;;5074736;28;20048;-70
2023/12/07 09:23:15;;;;;;;11.63;7.45;;;25.80;33.40;;;;;;5093668;28;20040;-72
2023/12/07 09:25:42;;;;;;;14.68;7.40;;;25.90;50.70;;;;;;5057796;28;20067;-71
2023/12/07 09:28:08;;;;;;;10.82;6.07;;;25.90;46.80;;;;;;5093513;28;20032;-70
2023/12/07 09:30:34;;;;;;;7.93;6.03;;;26.00;42.50;;;;;;5093688;28;20109;-73
2023/12/07 09:33:04;;;;;;;9.15;5.90;;;26.00;40.20;;;;;;5093672;28;20032;-72
2023/12/07 09:35:30;;;;;;;10.77;5.97;;;25.90;38.50;;;;;;5057393;28;20498;-70
2023/12/07 09:37:56;;;;;;;9.18;5.50;;;25.90;35.90;;;;;;5093031;28;20031;-73
2023/12/07 09:40:24;;;;;;;10.35;6.03;;;26.00;39.10;;;;;;5093357;28;20040;-70
2023/12/07 09:42:51;;;;;;;10.95;5.80;;;26.00;36.50;;;;;;5093633;28;20032;-70
2023/12/07 09:45:19;;;;;;;10.23;6.00;;;25.90;34.00;;;;;;5093264;28;20040;-69
2023/12/07 09:47:50;;;;;;;9.55;5.28;;;25.80;30.20;;;;;;5092935;28;20048;-71
2023/12/07 09:50:18;;;;;;;8.27;5.45;;;25.80;31.20;;;;;;5093169;28;20063;-72
2023/12/07 09:52:44;;;;;;;11.30;5.07;;;25.80;34.40;;;;;;5093664;28;20024;-71
2023/12/07 09:55:10;;;;;;;8.68;5.65;;;25.80;34.80;;;;;;5093499;28;20040;-70
2023/12/07 09:57:39;;;;;;;9.82;5.40;;;25.80;33.70;;;;;;5090987;28;20040;-71
2023/12/07 10:00:09;;;;;;;9.80;7.00;;;25.70;35.00;;;;;;5074215;28;20047;-69
2023/12/07 10:02:38;;;;;;;10.82;5.60;;;25.80;36.30;;;;;;5092948;28;20488;-67
2023/12/07 10:05:16;;;;;;;10.48;6.68;;;25.80;43.50;;;;;;5092983;28;20092;-68
2023/12/07 10:07:50;;;;;;;7.15;5.75;;;25.90;42.90;;;;;;5092764;28;20506;-68
2023/12/07 10:10:17;;;;;;;11.48;6.53;;;25.80;42.90;;;;;;5092923;28;20040;-66
2023/12/07 10:12:51;;;;;;;9.38;7.15;;;25.80;42.90;;;;;;5092782;28;20040;-72
2023/12/07 10:15:19;;;;;;;10.02;7.22;;;25.80;43.00;;;;;;5084395;28;20056;-72
2023/12/07 10:17:47;;;;;;;10.35;6.80;;;25.70;44.10;;;;;;5054699;28;20040;-73
2023/12/07 10:20:15;;;;;;;18.42;7.53;;;25.70;45.20;;;;;;5072562;28;20089;-68
2023/12/07 10:22:42;;;;;;;11.52;7.03;;;25.70;47.40;;;;;;5072071;28;20043;-72
2023/12/07 10:25:09;;;;;;;9.60;5.95;;;25.60;46.80;;;;;;5069116;28;20025;-74
2023/12/07 10:27:38;;;;;;;11.77;7.20;;;25.50;45.60;;;;;;5072137;28;20029;-73
2023/12/07 10:30:06;;;;;;;7.88;5.20;;;25.60;45.40;;;;;;5072249;28;20036;-71
2023/12/07 10:32:37;;;;;;;10.27;5.97;;;25.50;45.60;;;;;;5066042;28;20047;-71
2023/12/07 10:35:06;;;;;;;10.95;6.82;;;25.60;45.70;;;;;;5072109;28;20555;-69
2023/12/07 10:37:32;;;;;;;12.52;7.70;;;25.40;45.70;;;;;;5072049;28;20541;-70
2023/12/07 10:39:58;;;;;;;11.85;7.68;;;25.40;45.60;;;;;;5070851;28;20032;-68
2023/12/07 10:42:26;;;;;;;11.50;6.72;;;25.40;46.00;;;;;;5058837;28;20027;-68
2023/12/07 10:44:58;;;;;;;12.50;6.85;;;25.20;46.30;;;;;;5066340;28;20470;-70
2023/12/07 10:47:24;;;;;;;10.83;6.90;;;25.20;46.50;;;;;;5052143;28;20036;-69
2023/12/07 10:49:54;;;;;;;10.93;7.72;;;25.10;46.70;;;;;;5062965;28;20051;-69
2023/12/07 10:52:24;;;;;;;10.77;6.97;;;25.10;46.70;;;;;;5053715;28;20112;-68
2023/12/07 10:55:00;;;;;;;11.27;7.72;;;25.00;46.90;;;;;;5071779;28;20471;-69
2023/12/07 10:57:27;;;;;;;10.13;6.82;;;25.00;46.90;;;;;;5067816;28;20040;-69
2023/12/07 10:59:55;;;;;;;11.23;6.85;;;25.00;47.10;;;;;;5051528;28;20075;-69
2023/12/07 11:02:22;;;;;;;10.80;7.03;;;24.90;47.20;;;;;;5036281;28;20044;-70
2023/12/07 11:04:49;;;;;;;10.95;6.60;;;24.70;47.20;;;;;;5060718;28;20025;-70
2023/12/07 11:07:19;;;;;;;14.68;8.82;;;24.80;48.40;;;;;;5051731;28;20036;-70
2023/12/07 11:09:52;;;;;;;13.68;8.45;;;24.60;48.50;;;;;;5051097;28;20041;-70
2023/12/07 11:12:35;;;;;;;10.82;6.85;;;24.60;48.90;;;;;;5016140;28;20045;-70
2023/12/07 11:15:02;;;;;;;14.57;7.38;;;24.50;49.10;;;;;;5051343;28;20037;-70
2023/12/07 11:17:28;;;;;;;14.40;8.13;;;24.60;48.80;;;;;;5051390;28;20471;-68
2023/12/07 11:19:54;;;;;;;12.98;7.88;;;24.50;48.60;;;;;;5051798;28;20025;-70
2023/12/07 11:22:24;;;;;;;13.68;8.32;;;24.60;48.50;;;;;;5071640;28;20032;-69
2023/12/07 11:25:00;;;;;;;11.55;7.80;;;24.50;48.30;;;;;;5054130;28;20040;-68
2023/12/07 11:27:31;;;;;;;15.18;7.20;;;24.50;48.40;;;;;;5071451;28;20032;-69
2023/12/07 11:30:00;;;;;;;13.15;7.63;;;24.50;48.90;;;;;;5071007;28;20469;-70
2023/12/07 11:32:27;;;;;;;14.98;7.95;;;24.50;48.70;;;;;;5071259;28;20131;-70
2023/12/07 11:34:53;;;;;;;14.45;7.32;;;24.40;48.40;;;;;;5071321;28;20032;-69
2023/12/07 11:37:20;;;;;;;14.82;8.00;;;24.40;48.40;;;;;;5053223;28;20127;-70
2023/12/07 11:39:46;;;;;;;12.70;7.85;;;24.50;48.50;;;;;;5071016;28;20028;-72
2023/12/07 11:42:15;;;;;;;15.38;8.50;;;24.30;48.40;;;;;;5070770;28;20082;-70
2023/12/07 11:44:44;;;;;;;12.13;8.27;;;24.40;48.40;;;;;;5070975;28;20048;-70
2023/12/07 11:47:16;;;;;;;14.15;8.23;;;24.30;48.40;;;;;;5070758;28;20033;-70
2023/12/07 11:49:43;;;;;;;11.82;7.72;;;24.40;48.50;;;;;;5058166;28;20378;-67
2023/12/07 11:52:19;;;;;;;12.60;8.10;;;24.30;48.10;;;;;;5050832;28;20041;-69
2023/12/07 11:54:47;;;;;;;13.70;8.82;;;24.30;47.30;;;;;;5050762;28;20041;-68
2023/12/07 11:57:14;;;;;;;11.15;7.30;;;24.30;47.00;;;;;;5050536;28;20071;-67
2023/12/07 11:59:43;;;;;;;13.48;8.70;;;24.30;47.20;;;;;;5050640;28;20041;-68
2023/12/07 12:02:12;;;;;;;16.45;8.63;;;24.20;47.40;;;;;;5050705;28;20435;-67
2023/12/07 12:04:40;;;;;;;13.30;7.72;;;24.10;47.70;;;;;;5050618;28;20040;-67
2023/12/07 12:07:07;;;;;;;14.55;8.25;;;24.00;47.80;;;;;;5050453;28;20036;-67
2023/12/07 12:09:34;;;;;;;14.25;8.38;;;24.20;48.00;;;;;;5050459;28;20392;-67
2023/12/07 12:12:00;;;;;;;11.65;8.52;;;24.00;48.10;;;;;;5050482;28;20179;-68
2023/12/07 12:14:28;;;;;;;13.15;8.80;;;24.00;48.20;;;;;;5050503;28;20033;-68
2023/12/07 12:16:55;;;;;;;11.85;7.35;;;24.10;48.50;;;;;;5050513;28;20087;-67
2023/12/07 12:19:23;;;;;;;14.85;9.00;;;23.90;48.60;;;;;;5050590;28;20127;-68
2023/12/07 12:21:50;;;;;;;14.85;7.95;;;23.90;48.70;;;;;;5018363;28;20179;-69
2023/12/07 12:24:16;;;;;;;11.55;8.20;;;23.90;48.80;;;;;;5054429;28;20044;-69
2023/12/07 12:26:44;;;;;;;11.68;7.68;;;23.80;48.70;;;;;;5019142;28;20044;-68
2023/12/07 12:29:11;;;;;;;13.20;7.75;;;23.80;48.70;;;;;;5054350;28;20477;-68
2023/12/07 12:31:38;;;;;;;9.55;7.60;;;23.90;50.40;;;;;;5054538;28;20496;-68
2023/12/07 12:34:12;;;;;;;12.95;8.45;;;23.80;51.60;;;;;;5056730;28;20040;-69
2023/12/07 12:36:38;;;;;;;14.60;8.48;;;23.80;51.00;;;;;;4976231;28;20379;-68